createdAt,value
2018-09-08T00:00:03.263Z,12.1
2018-09-08T00:05:03.241Z,12.1
2018-09-08T00:10:02.807Z,12.0
2018-09-08T00:15:02.580Z,12.0
2018-09-08T00:20:03.148Z,11.6
2018-09-08T00:25:02.705Z,11.8
2018-09-08T00:30:03.333Z,11.6
2018-09-08T00:35:02.913Z,11.6
2018-09-08T00:40:02.744Z,11.6
2018-09-08T00:45:02.440Z,11.6
2018-09-08T00:50:03.126Z,11.6
2018-09-08T00:55:02.653Z,11.6
2018-09-08T01:00:03.502Z,11.6
2018-09-08T01:05:02.941Z,11.6
2018-09-08T01:10:02.752Z,11.3
2018-09-08T01:15:02.375Z,11.3
2018-09-08T01:20:03.052Z,11.3
2018-09-08T01:25:02.664Z,11.3
2018-09-08T01:30:02.413Z,11.3
2018-09-08T01:35:03.098Z,11.3
2018-09-08T01:40:02.842Z,11.3
2018-09-08T01:45:02.492Z,11.3
2018-09-08T01:50:03.032Z,11.1
2018-09-08T01:55:02.572Z,11.1
2018-09-08T02:00:03.193Z,11.1
2018-09-08T02:05:02.796Z,11.1
2018-09-08T02:10:02.607Z,11.1
2018-09-08T02:15:03.181Z,11.1
2018-09-08T02:20:02.661Z,11.1
2018-09-08T02:25:03.355Z,11.1
2018-09-08T02:30:02.880Z,11.3
2018-09-08T02:35:02.478Z,11.1
2018-09-08T02:40:03.182Z,11.1
2018-09-08T02:45:02.706Z,11.3
2018-09-08T02:50:02.344Z,11.3
2018-09-08T02:55:02.832Z,11.3
2018-09-08T03:00:02.500Z,11.1
2018-09-08T03:05:03.115Z,11.3
2018-09-08T03:10:02.756Z,11.3
2018-09-08T03:15:02.530Z,11.3
2018-09-08T03:20:03.229Z,11.1
2018-09-08T03:25:02.677Z,11.1
2018-09-08T03:30:02.391Z,11.1
2018-09-08T03:35:03.022Z,11.0
2018-09-08T03:40:02.748Z,11.0
2018-09-08T03:45:02.449Z,11.0
2018-09-08T03:50:02.961Z,10.8
2018-09-08T03:55:02.578Z,10.8
2018-09-08T04:00:03.189Z,10.8
2018-09-08T04:05:02.807Z,10.8
2018-09-08T04:10:02.375Z,10.6
2018-09-08T04:15:02.870Z,10.6
2018-09-08T04:20:02.603Z,10.6
2018-09-08T04:25:03.175Z,10.6
2018-09-08T04:30:03.193Z,10.5
2018-09-08T04:35:02.865Z,10.5
2018-09-08T04:40:02.398Z,10.5
2018-09-08T04:45:03.004Z,10.5
2018-09-08T04:50:02.636Z,10.3
2018-09-08T04:55:02.281Z,10.3
2018-09-08T05:00:02.805Z,10.3
2018-09-08T05:05:02.448Z,10.1
2018-09-08T05:10:03.142Z,10.1
2018-09-08T05:15:02.696Z,10.1
2018-09-08T05:20:02.340Z,10.1
2018-09-08T05:25:02.949Z,10.1
2018-09-08T05:30:02.448Z,10.1
2018-09-08T05:35:03.093Z,10.1
2018-09-08T05:40:03.284Z,10.3
2018-09-08T05:45:02.792Z,10.5
2018-09-08T05:50:02.306Z,10.6
2018-09-08T05:55:02.846Z,10.8
2018-09-08T06:00:02.421Z,11.0
2018-09-08T06:05:03.057Z,11.1
2018-09-08T06:10:02.644Z,11.3
2018-09-08T06:15:03.333Z,11.6
2018-09-08T06:20:02.947Z,11.6
2018-09-08T06:25:02.569Z,11.8
2018-09-08T06:30:03.160Z,12.0
2018-09-08T06:35:02.850Z,11.8
2018-09-08T06:40:02.659Z,12.0
2018-09-08T06:45:03.277Z,12.0
2018-09-08T06:50:03.061Z,12.0
2018-09-08T06:55:02.693Z,12.0
2018-09-08T07:00:03.532Z,12.1
2018-09-08T07:05:03.107Z,12.1
2018-09-08T07:10:02.777Z,12.3
2018-09-08T07:15:02.613Z,12.6
2018-09-08T07:20:02.561Z,12.8
2018-09-08T07:25:03.192Z,12.8
2018-09-08T07:30:02.375Z,12.8
2018-09-08T07:35:02.951Z,13.3
2018-09-08T07:40:02.548Z,13.6
2018-09-08T07:45:03.108Z,13.8
2018-09-08T07:50:02.644Z,14.1
2018-09-08T07:55:03.283Z,14.3
2018-09-08T08:00:02.902Z,14.1
2018-09-08T08:05:02.500Z,14.3
2018-09-08T08:10:03.454Z,14.5
2018-09-08T08:15:03.051Z,14.6
2018-09-08T08:20:02.751Z,15.1
2018-09-08T08:25:03.295Z,15.8
2018-09-08T08:30:02.970Z,16.2
2018-09-08T08:35:02.586Z,15.8
2018-09-08T08:40:03.238Z,15.8
2018-09-08T08:45:02.775Z,16.2
2018-09-08T08:50:02.459Z,16.3
2018-09-08T08:55:03.016Z,16.7
2018-09-08T09:00:02.602Z,16.3
2018-09-08T09:05:03.258Z,16.3
2018-09-08T09:10:02.958Z,16.6
2018-09-08T09:15:03.105Z,16.7
2018-09-08T09:20:02.343Z,17.2
2018-09-08T09:25:03.020Z,17.5
2018-09-08T09:30:02.603Z,17.8
2018-09-08T09:35:03.256Z,18.2
2018-09-08T09:40:02.807Z,17.7
2018-09-08T09:45:02.660Z,17.7
2018-09-08T09:50:02.336Z,18.7
2018-09-08T09:55:02.929Z,18.5
2018-09-08T10:00:02.447Z,18.2
2018-09-08T10:05:03.030Z,17.8
2018-09-08T10:10:02.654Z,18.2
2018-09-08T10:15:03.227Z,19.0
2018-09-08T10:20:02.750Z,19.0
2018-09-08T10:25:03.267Z,18.5
2018-09-08T10:30:03.347Z,18.2
2018-09-08T10:35:03.062Z,18.5
2018-09-08T10:40:02.651Z,19.0
2018-09-08T10:45:02.429Z,19.3
2018-09-08T10:50:02.939Z,19.7
2018-09-08T10:55:02.456Z,19.7
2018-09-08T11:00:03.309Z,20.7
2018-09-08T11:05:02.881Z,19.1
2018-09-08T11:10:02.576Z,19.0
2018-09-08T11:15:03.091Z,20.2
2018-09-08T11:20:02.721Z,20.7
2018-09-08T11:25:02.305Z,21.2
2018-09-08T11:30:02.921Z,20.8
2018-09-08T11:35:02.488Z,20.2
2018-09-08T11:40:03.135Z,20.2
2018-09-08T11:45:02.657Z,21.0
2018-09-08T11:50:02.346Z,20.6
2018-09-08T11:55:02.906Z,21.3
2018-09-08T12:00:02.555Z,20.0
2018-09-08T12:05:03.254Z,19.7
2018-09-08T12:10:02.879Z,19.3
2018-09-08T12:15:02.534Z,19.2
2018-09-08T12:20:03.182Z,19.3
2018-09-08T12:25:02.760Z,19.5
2018-09-08T12:30:02.454Z,20.0
2018-09-08T12:35:03.136Z,19.5
2018-09-08T12:40:02.734Z,19.2
2018-09-08T12:45:02.284Z,20.3
2018-09-08T12:50:02.918Z,20.2
2018-09-08T12:55:02.446Z,21.0
2018-09-08T13:00:02.999Z,20.2
2018-09-08T13:05:02.546Z,20.6
2018-09-08T13:10:03.181Z,20.6
2018-09-08T13:15:02.804Z,20.6
2018-09-08T13:20:02.509Z,20.7
2018-09-08T13:25:02.993Z,20.3
2018-09-08T13:30:02.610Z,20.0
2018-09-08T13:35:03.215Z,20.1
2018-09-08T13:40:02.829Z,19.5
2018-09-08T13:45:02.516Z,19.1
2018-09-08T13:50:03.125Z,19.1
2018-09-08T13:55:02.668Z,19.3
2018-09-08T14:00:02.376Z,19.3
2018-09-08T14:05:03.043Z,19.0
2018-09-08T14:10:02.719Z,18.8
2018-09-08T14:15:02.469Z,20.0
2018-09-08T14:20:03.123Z,19.7
2018-09-08T14:25:02.749Z,19.7
2018-09-08T14:30:02.408Z,19.3
2018-09-08T14:35:03.072Z,19.1
2018-09-08T14:40:02.756Z,19.3
2018-09-08T14:45:02.807Z,19.5
2018-09-08T14:50:02.731Z,19.1
2018-09-08T14:55:02.367Z,19.0
2018-09-08T15:00:02.948Z,19.0
2018-09-08T15:05:02.736Z,19.0
2018-09-08T15:10:02.941Z,19.1
2018-09-08T15:15:02.571Z,19.3
2018-09-08T15:20:03.204Z,19.2
2018-09-08T15:25:02.840Z,20.0
2018-09-08T15:30:02.632Z,20.1
2018-09-08T15:35:02.315Z,19.5
2018-09-08T15:40:03.228Z,19.3
2018-09-08T15:45:03.216Z,19.0
2018-09-08T15:50:02.951Z,18.8
2018-09-08T15:55:02.503Z,18.8
2018-09-08T16:00:03.276Z,18.7
2018-09-08T16:05:02.914Z,18.6
2018-09-08T16:10:02.908Z,18.5
2018-09-08T16:15:02.493Z,18.5
2018-09-08T16:20:03.187Z,18.5
2018-09-08T16:25:02.745Z,18.5
2018-09-08T16:30:03.317Z,18.5
2018-09-08T16:35:02.835Z,18.2
2018-09-08T16:40:02.530Z,18.2
2018-09-08T16:45:03.212Z,18.2
2018-09-08T16:50:02.771Z,18.2
2018-09-08T16:55:02.945Z,18.2
2018-09-08T17:00:02.518Z,18.2
2018-09-08T17:05:03.237Z,18.1
2018-09-08T17:10:02.657Z,18.1
2018-09-08T17:15:03.474Z,17.8
2018-09-08T17:20:03.018Z,17.7
2018-09-08T17:25:02.607Z,17.7
2018-09-08T17:30:03.130Z,17.7
2018-09-08T17:35:02.657Z,17.7
2018-09-08T17:40:03.357Z,17.5
2018-09-08T17:45:02.890Z,17.5
2018-09-08T17:50:02.535Z,17.3
2018-09-08T17:55:03.069Z,17.2
2018-09-08T18:00:02.646Z,17.2
2018-09-08T18:05:03.165Z,17.1
2018-09-08T18:10:02.844Z,17.0
2018-09-08T18:15:02.465Z,16.7
2018-09-08T18:20:03.093Z,16.7
2018-09-08T18:25:02.590Z,16.7
2018-09-08T18:30:03.170Z,16.7
2018-09-08T18:35:02.735Z,16.7
2018-09-08T18:40:02.311Z,16.7
2018-09-08T18:45:02.857Z,16.7
2018-09-08T18:50:02.434Z,16.6
2018-09-08T18:55:03.094Z,16.7
2018-09-08T19:00:02.682Z,16.6
2018-09-08T19:05:03.204Z,16.6
2018-09-08T19:10:02.813Z,16.3
2018-09-08T19:15:02.426Z,16.6
2018-09-08T19:20:03.155Z,16.3
2018-09-08T19:25:02.804Z,16.2
2018-09-08T19:30:02.347Z,16.2
2018-09-08T19:35:02.861Z,16.2
2018-09-08T19:40:02.547Z,16.2
2018-09-08T19:45:03.155Z,16.2
2018-09-08T19:50:02.667Z,16.0
2018-09-08T19:55:03.252Z,16.0
2018-09-08T20:00:03.357Z,16.0
2018-09-08T20:05:02.966Z,16.0
2018-09-08T20:10:02.619Z,16.0
2018-09-08T20:15:03.343Z,15.8
2018-09-08T20:20:02.918Z,15.8
2018-09-08T20:25:02.668Z,15.8
2018-09-08T20:30:03.319Z,15.8
2018-09-08T20:35:02.914Z,15.6
2018-09-08T20:40:03.181Z,15.6
2018-09-08T20:45:02.736Z,15.8
2018-09-08T20:50:02.302Z,15.6
2018-09-08T20:55:03.048Z,15.6
2018-09-08T21:00:02.751Z,15.6
2018-09-08T21:05:02.342Z,15.6
2018-09-08T21:10:03.037Z,15.5
2018-09-08T21:15:02.640Z,15.5
2018-09-08T21:20:03.282Z,15.3
2018-09-08T21:25:02.898Z,15.3
2018-09-08T21:30:02.605Z,15.3
2018-09-08T21:35:03.226Z,15.1
2018-09-08T21:40:02.845Z,15.1
2018-09-08T21:45:02.499Z,15.0
2018-09-08T21:50:03.182Z,15.0
2018-09-08T21:55:02.821Z,15.0
2018-09-08T22:00:02.408Z,14.8
2018-09-08T22:05:03.166Z,15.0
2018-09-08T22:10:02.822Z,14.8
2018-09-08T22:15:02.491Z,14.6
2018-09-08T22:20:03.228Z,14.6
2018-09-08T22:25:02.893Z,14.5
2018-09-08T22:30:02.497Z,14.5
2018-09-08T22:35:03.174Z,14.3
2018-09-08T22:40:02.921Z,14.1
2018-09-08T22:45:02.624Z,14.0
2018-09-08T22:50:03.279Z,14.1
2018-09-08T22:55:02.884Z,14.3
2018-09-08T23:00:02.575Z,14.1
2018-09-08T23:05:02.938Z,14.1
2018-09-08T23:10:02.590Z,14.1
2018-09-08T23:15:03.146Z,14.0
2018-09-08T23:20:02.862Z,14.3
2018-09-08T23:25:02.504Z,14.3
2018-09-08T23:30:03.240Z,14.3
2018-09-08T23:35:02.821Z,14.3
2018-09-08T23:40:02.569Z,14.0
2018-09-08T23:45:03.261Z,14.1
2018-09-08T23:50:02.893Z,14.1
2018-09-08T23:55:02.564Z,14.0
